createdAt,value
2022-08-25T00:01:32.401Z,3.78
2022-08-25T00:04:01.750Z,3.20
2022-08-25T00:06:30.317Z,3.42
2022-08-25T00:08:59.877Z,3.72
2022-08-25T00:11:29.700Z,3.05
2022-08-25T00:14:02.003Z,3.28
2022-08-25T00:16:31.499Z,3.00
2022-08-25T00:19:01.996Z,2.97
2022-08-25T00:21:32.071Z,3.33
2022-08-25T00:24:02.195Z,3.35
2022-08-25T00:26:30.846Z,3.45
2022-08-25T00:29:01.640Z,3.20
2022-08-25T00:31:38.510Z,3.22
2022-08-25T00:34:08.303Z,3.60
2022-08-25T00:36:36.759Z,3.67
2022-08-25T00:39:05.236Z,3.63
2022-08-25T00:41:35.269Z,3.20
2022-08-25T00:44:06.543Z,3.13
2022-08-25T00:46:36.642Z,3.30
2022-08-25T00:49:06.533Z,3.47
2022-08-25T00:51:37.065Z,3.53
2022-08-25T00:54:06.492Z,3.25
2022-08-25T00:56:41.232Z,3.40
2022-08-25T00:59:11.549Z,3.43
2022-08-25T01:01:39.962Z,3.15
2022-08-25T01:04:08.791Z,3.15
2022-08-25T01:06:39.594Z,2.90
2022-08-25T01:09:08.406Z,3.53
2022-08-25T01:11:41.295Z,3.20
2022-08-25T01:14:11.801Z,3.37
2022-08-25T01:16:40.816Z,2.80
2022-08-25T01:19:10.152Z,3.13
2022-08-25T01:21:46.792Z,2.93
2022-08-25T01:24:22.360Z,3.30
2022-08-25T01:26:51.120Z,3.60
2022-08-25T01:29:22.504Z,3.50
2022-08-25T01:31:51.536Z,3.60
2022-08-25T01:34:21.346Z,3.87
2022-08-25T01:36:51.163Z,3.73
2022-08-25T01:39:19.657Z,3.13
2022-08-25T01:41:55.982Z,3.10
2022-08-25T01:44:26.728Z,3.40
2022-08-25T01:46:55.601Z,3.30
2022-08-25T01:49:23.960Z,3.23
2022-08-25T01:51:57.625Z,2.87
2022-08-25T01:54:26.073Z,3.90
2022-08-25T01:56:55.254Z,3.17
2022-08-25T01:59:24.505Z,3.07
2022-08-25T02:01:59.998Z,3.30
2022-08-25T02:04:29.565Z,3.20
2022-08-25T02:06:59.441Z,3.67
2022-08-25T02:09:27.941Z,3.60
2022-08-25T02:11:56.935Z,3.30
2022-08-25T02:14:25.865Z,3.30
2022-08-25T02:16:55.383Z,3.53
2022-08-25T02:19:26.861Z,3.70
2022-08-25T02:21:55.757Z,3.43
2022-08-25T02:24:32.395Z,3.00
2022-08-25T02:27:01.243Z,3.17
2022-08-25T02:29:29.616Z,3.67
2022-08-25T02:31:58.908Z,3.43
2022-08-25T02:34:27.649Z,3.40
2022-08-25T02:36:56.081Z,3.60
2022-08-25T02:39:24.579Z,3.17
2022-08-25T02:41:54.354Z,3.63
2022-08-25T02:44:22.754Z,3.80
2022-08-25T02:46:51.164Z,3.87
2022-08-25T02:49:19.818Z,3.40
2022-08-25T02:51:48.249Z,3.67
2022-08-25T02:54:16.624Z,3.80
2022-08-25T02:56:45.199Z,3.83
2022-08-25T02:59:14.989Z,3.70
2022-08-25T03:01:44.450Z,3.17
2022-08-25T03:04:13.544Z,3.67
2022-08-25T03:06:42.249Z,3.90
2022-08-25T03:09:10.687Z,3.63
2022-08-25T03:11:39.360Z,4.03
2022-08-25T03:14:08.417Z,3.80
2022-08-25T03:16:38.750Z,3.47
2022-08-25T03:19:07.268Z,4.00
2022-08-25T03:21:35.867Z,3.80
2022-08-25T03:24:25.192Z,3.47
2022-08-25T03:26:56.650Z,3.40
2022-08-25T03:29:25.368Z,3.23
2022-08-25T03:31:58.758Z,3.60
2022-08-25T03:34:27.921Z,3.40
2022-08-25T03:36:57.042Z,3.83
2022-08-25T03:39:26.886Z,3.87
2022-08-25T03:41:55.614Z,3.83
2022-08-25T03:44:24.073Z,3.60
2022-08-25T03:46:54.220Z,3.63
2022-08-25T03:49:25.353Z,3.67
2022-08-25T03:51:55.489Z,3.73
2022-08-25T03:54:25.445Z,3.77
2022-08-25T03:56:54.476Z,3.47
2022-08-25T03:59:23.096Z,4.10
2022-08-25T04:01:55.153Z,3.60
2022-08-25T04:04:25.691Z,3.73
2022-08-25T04:06:54.211Z,3.60
2022-08-25T04:09:22.992Z,3.57
2022-08-25T04:11:53.360Z,3.57
2022-08-25T04:14:23.547Z,3.90
2022-08-25T04:16:52.816Z,3.50
2022-08-25T04:19:21.404Z,3.70
2022-08-25T04:21:51.691Z,3.73
2022-08-25T04:24:25.069Z,3.57
2022-08-25T04:27:00.497Z,3.50
2022-08-25T04:29:29.279Z,3.73
2022-08-25T04:31:58.194Z,3.50
2022-08-25T04:34:30.742Z,3.87
2022-08-25T04:37:02.614Z,3.67
2022-08-25T04:39:31.450Z,4.53
2022-08-25T04:42:00.808Z,3.90
2022-08-25T04:44:29.790Z,3.73
2022-08-25T04:46:58.321Z,3.60
2022-08-25T04:49:26.882Z,4.33
2022-08-25T04:51:56.300Z,4.10
2022-08-25T04:54:26.267Z,3.90
2022-08-25T04:56:58.002Z,3.40
2022-08-25T04:59:30.405Z,4.13
2022-08-25T05:02:02.116Z,3.57
2022-08-25T05:04:30.929Z,3.90
2022-08-25T05:06:59.441Z,3.57
2022-08-25T05:09:32.075Z,4.00
2022-08-25T05:12:02.277Z,3.50
2022-08-25T05:14:31.999Z,3.53
2022-08-25T05:17:00.684Z,3.30
2022-08-25T05:19:29.971Z,3.40
2022-08-25T05:21:58.428Z,3.77
2022-08-25T05:24:26.916Z,3.67
2022-08-25T05:26:56.810Z,3.53
2022-08-25T05:29:25.757Z,3.20
2022-08-25T05:31:55.354Z,3.73
2022-08-25T05:34:24.869Z,3.30
2022-08-25T05:36:53.289Z,3.73
2022-08-25T05:39:23.916Z,4.10
2022-08-25T05:41:56.995Z,3.20
2022-08-25T05:44:25.438Z,3.20
2022-08-25T05:46:53.813Z,3.33
2022-08-25T05:49:22.339Z,3.87
2022-08-25T05:51:51.005Z,3.87
2022-08-25T05:54:19.722Z,4.17
2022-08-25T05:56:48.140Z,4.23
2022-08-25T05:59:17.886Z,3.87
2022-08-25T06:02:00.145Z,4.23
2022-08-25T06:04:28.790Z,4.18
2022-08-25T06:06:59.471Z,4.30
2022-08-25T06:09:28.117Z,4.95
2022-08-25T06:11:56.514Z,3.95
2022-08-25T06:14:27.413Z,4.05
2022-08-25T06:16:56.944Z,4.15
2022-08-25T06:19:25.339Z,3.90
2022-08-25T06:21:55.823Z,4.28
2022-08-25T06:24:24.298Z,4.82
2022-08-25T06:26:53.886Z,3.90
2022-08-25T06:29:22.730Z,4.28
2022-08-25T06:31:52.596Z,4.57
2022-08-25T06:34:24.084Z,4.10
2022-08-25T06:36:52.976Z,4.40
2022-08-25T06:39:21.373Z,4.35
2022-08-25T06:41:52.500Z,4.50
2022-08-25T06:44:21.876Z,4.05
2022-08-25T06:46:51.888Z,3.90
2022-08-25T06:49:20.455Z,3.90
2022-08-25T06:51:49.612Z,4.05
2022-08-25T06:54:18.130Z,4.70
2022-08-25T06:56:47.448Z,4.10
2022-08-25T06:59:19.881Z,4.20
2022-08-25T07:01:49.738Z,3.97
2022-08-25T07:04:20.730Z,4.88
2022-08-25T07:06:49.976Z,4.22
2022-08-25T07:09:21.065Z,3.85
2022-08-25T07:11:49.618Z,4.45
2022-08-25T07:14:19.731Z,5.18
2022-08-25T07:16:50.393Z,4.32
2022-08-25T07:19:21.461Z,4.95
2022-08-25T07:21:52.053Z,4.82
2022-08-25T07:24:21.281Z,4.70
2022-08-25T07:26:49.796Z,4.15
2022-08-25T07:29:19.686Z,4.47
2022-08-25T07:31:48.359Z,4.28
2022-08-25T07:34:34.740Z,4.20
2022-08-25T07:37:05.508Z,4.57
2022-08-25T07:39:36.123Z,4.70
2022-08-25T07:42:11.995Z,4.07
2022-08-25T07:44:40.797Z,3.85
2022-08-25T07:47:15.642Z,3.90
2022-08-25T07:49:44.310Z,3.92
2022-08-25T07:52:14.200Z,4.18
2022-08-25T07:54:43.469Z,3.85
2022-08-25T07:57:15.725Z,4.05
2022-08-25T07:59:44.578Z,3.83
2022-08-25T08:02:18.844Z,3.97
2022-08-25T08:04:49.812Z,3.60
2022-08-25T08:07:21.348Z,3.58
2022-08-25T08:10:00.444Z,3.42
2022-08-25T08:12:40.487Z,3.30
2022-08-25T08:15:10.838Z,3.63
2022-08-25T08:17:41.501Z,3.35
2022-08-25T08:20:11.637Z,3.70
2022-08-25T08:22:42.741Z,4.32
2022-08-25T08:25:18.623Z,3.58
2022-08-25T08:27:50.824Z,3.40
2022-08-25T08:30:26.446Z,3.13
2022-08-25T08:33:11.818Z,4.68
2022-08-25T08:35:41.048Z,4.13
2022-08-25T08:38:17.316Z,4.30
2022-08-25T08:41:12.943Z,4.47
2022-08-25T08:43:43.484Z,3.95
2022-08-25T08:46:12.528Z,4.05
2022-08-25T08:48:46.413Z,3.35
2022-08-25T08:51:19.984Z,3.88
2022-08-25T08:53:57.526Z,3.97
2022-08-25T08:56:30.790Z,3.70
2022-08-25T08:59:05.592Z,3.90
2022-08-25T09:01:43.141Z,3.75
2022-08-25T09:04:16.451Z,4.38
2022-08-25T09:06:46.796Z,3.50
2022-08-25T09:09:21.641Z,3.60
2022-08-25T09:12:00.997Z,3.50
2022-08-25T09:14:45.754Z,3.42
2022-08-25T09:17:27.302Z,2.95
2022-08-25T09:20:18.238Z,3.33
2022-08-25T09:22:54.418Z,3.40
2022-08-25T09:25:48.811Z,3.65
2022-08-25T09:28:20.930Z,3.28
2022-08-25T09:30:52.457Z,3.55
2022-08-25T09:33:21.988Z,3.63
2022-08-25T09:35:51.593Z,3.38
2022-08-25T09:38:22.577Z,3.58
2022-08-25T09:40:54.865Z,3.72
2022-08-25T09:43:32.049Z,3.38
2022-08-25T09:46:02.770Z,3.58
2022-08-25T09:48:39.754Z,3.28
2022-08-25T09:51:18.846Z,4.10
2022-08-25T09:53:50.986Z,3.40
2022-08-25T09:56:22.837Z,3.97
2022-08-25T09:58:51.684Z,4.30
2022-08-25T10:01:22.490Z,4.03
2022-08-25T10:04:02.475Z,3.60
2022-08-25T10:06:36.678Z,3.55
2022-08-25T10:09:08.593Z,3.30
2022-08-25T10:11:43.533Z,3.40
2022-08-25T10:14:28.711Z,3.70
2022-08-25T10:17:17.146Z,3.78
2022-08-25T10:19:45.545Z,3.78
2022-08-25T10:22:22.456Z,3.30
2022-08-25T10:24:50.984Z,3.28
2022-08-25T10:27:27.411Z,3.33
2022-08-25T10:30:15.022Z,3.20
2022-08-25T10:32:53.788Z,3.17
2022-08-25T10:35:24.061Z,3.45
2022-08-25T10:38:01.540Z,3.20
2022-08-25T10:40:32.892Z,3.47
2022-08-25T10:43:07.912Z,3.45
2022-08-25T10:45:44.890Z,2.97
2022-08-25T10:48:28.085Z,3.25
2022-08-25T10:50:58.200Z,3.53
2022-08-25T10:53:29.065Z,3.10
2022-08-25T10:56:12.642Z,2.90
2022-08-25T10:58:55.874Z,3.00
2022-08-25T11:01:43.786Z,3.42
2022-08-25T11:04:17.218Z,3.10
2022-08-25T11:06:54.824Z,3.30
2022-08-25T11:09:24.756Z,3.10
2022-08-25T11:11:56.529Z,3.22
2022-08-25T11:14:30.365Z,3.67
2022-08-25T11:17:06.628Z,3.30
2022-08-25T11:19:37.089Z,3.20
2022-08-25T11:22:09.965Z,3.20
2022-08-25T11:24:43.282Z,2.58
2022-08-25T11:27:18.851Z,3.05
2022-08-25T11:29:56.501Z,3.08
2022-08-25T11:32:26.574Z,3.88
2022-08-25T11:34:55.399Z,2.85
2022-08-25T11:37:26.749Z,2.95
2022-08-25T11:40:05.027Z,3.10
2022-08-25T11:42:38.942Z,2.53
2022-08-25T11:45:12.884Z,3.03
2022-08-25T11:47:53.437Z,2.60
2022-08-25T11:50:30.140Z,3.22
2022-08-25T11:52:59.765Z,2.95
2022-08-25T11:55:31.421Z,2.50
2022-08-25T11:58:19.537Z,2.35
2022-08-25T12:00:47.957Z,2.50
2022-08-25T12:03:35.069Z,2.40
2022-08-25T12:06:18.218Z,2.75
2022-08-25T12:08:52.284Z,2.47
2022-08-25T12:11:39.346Z,2.33
2022-08-25T12:14:17.854Z,2.42
2022-08-25T12:17:01.373Z,2.40
2022-08-25T12:19:31.753Z,2.50
2022-08-25T12:22:18.897Z,2.83
2022-08-25T12:24:51.505Z,2.67
2022-08-25T12:27:26.975Z,2.42
2022-08-25T12:29:59.792Z,2.50
2022-08-25T12:32:37.897Z,2.28
2022-08-25T12:35:15.929Z,2.60
2022-08-25T12:37:58.184Z,2.50
2022-08-25T12:40:29.307Z,2.13
2022-08-25T12:43:08.777Z,2.10
2022-08-25T12:45:46.414Z,1.80
2022-08-25T12:48:34.446Z,1.60
2022-08-25T12:51:07.028Z,1.60
2022-08-25T12:53:37.911Z,1.77
2022-08-25T12:56:07.905Z,1.80
2022-08-25T12:59:01.017Z,2.28
2022-08-25T13:01:36.707Z,2.00
2022-08-25T13:04:26.349Z,2.22
2022-08-25T13:07:17.400Z,2.30
2022-08-25T13:10:19.550Z,2.60
2022-08-25T13:12:53.628Z,2.70
2022-08-25T13:15:35.307Z,2.50
2022-08-25T13:18:21.235Z,2.53
2022-08-25T13:20:52.149Z,2.53
2022-08-25T13:23:30.026Z,2.55
2022-08-25T13:25:59.879Z,2.30
2022-08-25T13:28:32.604Z,2.45
2022-08-25T13:31:06.215Z,2.20
2022-08-25T13:33:36.289Z,2.28
2022-08-25T13:36:34.635Z,2.20
2022-08-25T13:39:13.765Z,2.50
2022-08-25T13:41:52.150Z,2.28
2022-08-25T13:44:26.643Z,2.17
2022-08-25T13:47:08.955Z,1.92
2022-08-25T13:49:38.399Z,1.95
2022-08-25T13:52:08.208Z,2.00
2022-08-25T13:54:41.107Z,2.15
2022-08-25T13:57:19.150Z,1.90
2022-08-25T13:59:52.122Z,2.00
2022-08-25T14:02:42.190Z,1.90
2022-08-25T14:05:14.270Z,1.77
2022-08-25T14:08:03.799Z,1.80
2022-08-25T14:10:44.025Z,1.52
2022-08-25T14:13:17.091Z,1.80
2022-08-25T14:15:47.545Z,1.73
2022-08-25T14:18:21.718Z,1.40
2022-08-25T14:20:57.536Z,1.27
2022-08-25T14:23:27.687Z,1.40
2022-08-25T14:25:58.037Z,1.35
2022-08-25T14:28:30.301Z,1.60
2022-08-25T14:31:02.179Z,1.38
2022-08-25T14:33:41.114Z,1.30
2022-08-25T14:36:10.404Z,1.40
2022-08-25T14:38:41.200Z,1.50
2022-08-25T14:41:12.317Z,1.50
2022-08-25T14:43:41.853Z,1.63
2022-08-25T14:46:16.236Z,1.42
2022-08-25T14:48:46.856Z,1.40
2022-08-25T14:51:17.259Z,1.50
2022-08-25T14:53:45.739Z,1.40
2022-08-25T14:56:14.355Z,1.45
2022-08-25T14:58:51.582Z,1.60
2022-08-25T15:01:29.148Z,1.70
2022-08-25T15:04:02.758Z,1.30
2022-08-25T15:06:31.482Z,1.60
2022-08-25T15:09:11.658Z,1.65
2022-08-25T15:11:44.750Z,1.65
2022-08-25T15:14:17.498Z,1.40
2022-08-25T15:16:48.086Z,1.60
2022-08-25T15:19:20.249Z,1.33
2022-08-25T15:21:49.678Z,1.50
2022-08-25T15:24:19.522Z,1.75
2022-08-25T15:29:27.256Z,1.48
2022-08-25T15:31:55.717Z,1.77
2022-08-25T15:34:23.892Z,1.85
2022-08-25T15:36:52.292Z,1.80
2022-08-25T15:39:21.268Z,1.90
2022-08-25T15:41:52.135Z,1.65
2022-08-25T15:44:20.842Z,1.65
2022-08-25T15:46:50.534Z,2.00
2022-08-25T15:49:20.877Z,1.80
2022-08-25T15:51:52.347Z,1.88
2022-08-25T15:54:21.564Z,1.83
2022-08-25T15:56:49.709Z,2.20
2022-08-25T15:59:18.082Z,1.65
2022-08-25T16:01:53.579Z,2.17
2022-08-25T16:04:22.376Z,1.83
2022-08-25T16:06:51.873Z,1.90
2022-08-25T16:09:23.048Z,2.20
2022-08-25T16:11:56.721Z,2.28
2022-08-25T16:14:27.713Z,1.92
2022-08-25T16:16:58.447Z,1.70
2022-08-25T16:19:28.199Z,2.25
2022-08-25T16:21:56.492Z,1.90
2022-08-25T16:24:25.036Z,1.80
2022-08-25T16:26:55.796Z,1.80
2022-08-25T16:29:24.267Z,1.90
2022-08-25T16:31:53.469Z,1.75
2022-08-25T16:34:28.744Z,1.60
2022-08-25T16:36:59.075Z,1.70
2022-08-25T16:39:27.738Z,1.77
2022-08-25T16:41:55.938Z,2.00
2022-08-25T16:44:24.367Z,1.90
2022-08-25T16:46:55.308Z,1.88
2022-08-25T16:49:25.878Z,1.73
2022-08-25T16:51:57.502Z,2.20
2022-08-25T16:54:45.554Z,1.92
2022-08-25T16:57:14.286Z,1.90
2022-08-25T16:59:43.929Z,1.80
2022-08-25T17:02:12.480Z,1.73
2022-08-25T17:04:42.494Z,1.80
2022-08-25T17:07:10.624Z,1.95
2022-08-25T17:09:38.791Z,1.98
2022-08-25T17:12:09.232Z,2.20
2022-08-25T17:14:37.447Z,1.90
2022-08-25T17:17:07.095Z,2.10
2022-08-25T17:19:35.622Z,2.10
2022-08-25T17:22:08.462Z,2.08
2022-08-25T17:24:37.372Z,2.33
2022-08-25T17:27:09.145Z,2.90
2022-08-25T17:29:37.377Z,2.13
2022-08-25T17:32:06.137Z,2.15
2022-08-25T17:34:36.553Z,2.30
2022-08-25T17:37:07.512Z,2.00
2022-08-25T17:39:36.854Z,2.70
2022-08-25T17:42:06.434Z,3.08
2022-08-25T17:44:39.408Z,2.78
2022-08-25T17:47:08.334Z,2.70
2022-08-25T17:49:39.151Z,3.38
2022-08-25T17:52:09.114Z,2.92
2022-08-25T17:54:37.613Z,3.40
2022-08-25T17:57:07.827Z,3.20
2022-08-25T17:59:37.219Z,3.13
2022-08-25T18:02:05.854Z,2.60
2022-08-25T18:04:34.870Z,2.60
2022-08-25T18:07:03.530Z,2.72
2022-08-25T18:09:33.556Z,2.90
2022-08-25T18:12:02.311Z,2.40
2022-08-25T18:14:32.352Z,2.70
2022-08-25T18:17:11.392Z,2.70
2022-08-25T18:19:40.979Z,3.17
2022-08-25T18:22:09.577Z,3.28
2022-08-25T18:24:39.695Z,2.85
2022-08-25T18:27:11.195Z,2.75
2022-08-25T18:29:40.679Z,2.92
2022-08-25T18:32:09.513Z,2.90
2022-08-25T18:34:41.341Z,2.90
2022-08-25T18:37:27.230Z,2.72
2022-08-25T18:40:15.242Z,2.50
2022-08-25T18:42:43.640Z,3.13
2022-08-25T18:45:12.641Z,3.08
2022-08-25T18:47:41.529Z,2.88
2022-08-25T18:50:10.681Z,2.60
2022-08-25T18:52:38.929Z,2.42
2022-08-25T18:55:09.817Z,2.85
2022-08-25T18:57:41.781Z,3.80
2022-08-25T19:00:12.645Z,3.40
2022-08-25T19:02:40.974Z,2.50
2022-08-25T19:05:16.340Z,3.42
2022-08-25T19:07:45.703Z,3.30
2022-08-25T19:10:24.027Z,3.10
2022-08-25T19:12:54.918Z,2.80
2022-08-25T19:15:27.514Z,2.92
2022-08-25T19:17:57.148Z,3.00
2022-08-25T19:20:26.516Z,2.88
2022-08-25T19:22:57.104Z,2.85
2022-08-25T19:25:33.049Z,3.15
2022-08-25T19:28:03.199Z,3.10
2022-08-25T19:30:34.197Z,3.00
2022-08-25T19:33:03.050Z,3.50
2022-08-25T19:35:43.936Z,3.10
2022-08-25T19:38:34.018Z,3.05
2022-08-25T19:41:10.436Z,3.10
2022-08-25T19:43:55.469Z,3.25
2022-08-25T19:46:32.340Z,2.83
2022-08-25T19:49:07.116Z,3.50
2022-08-25T19:51:39.617Z,3.00
2022-08-25T19:54:09.138Z,3.05
2022-08-25T19:56:43.680Z,3.28
2022-08-25T19:59:23.079Z,3.47
2022-08-25T20:01:52.743Z,3.53
2022-08-25T20:04:25.532Z,3.30
2022-08-25T20:06:55.541Z,3.90
2022-08-25T20:09:39.285Z,3.47
2022-08-25T20:12:11.687Z,3.50
2022-08-25T20:14:41.209Z,3.40
2022-08-25T20:17:14.409Z,3.53
2022-08-25T20:19:54.269Z,4.28
2022-08-25T20:22:26.160Z,3.63
2022-08-25T20:24:57.364Z,3.20
2022-08-25T20:27:28.960Z,3.25
2022-08-25T20:29:57.830Z,3.65
2022-08-25T20:32:29.027Z,4.07
2022-08-25T20:34:57.825Z,3.85
2022-08-25T20:37:28.440Z,3.75
2022-08-25T20:39:57.152Z,3.53
2022-08-25T20:42:29.520Z,3.70
2022-08-25T20:45:02.715Z,4.10
2022-08-25T20:47:32.447Z,3.55
2022-08-25T20:50:06.681Z,4.30
2022-08-25T20:52:37.426Z,3.83
2022-08-25T20:55:11.921Z,3.70
2022-08-25T20:57:43.976Z,3.22
2022-08-25T21:00:13.991Z,3.25
2022-08-25T21:02:46.136Z,3.80
2022-08-25T21:05:15.687Z,3.40
2022-08-25T21:07:45.156Z,3.88
2022-08-25T21:10:14.107Z,3.78
2022-08-25T21:12:45.183Z,3.40
2022-08-25T21:15:18.096Z,4.07
2022-08-25T21:17:50.390Z,3.65
2022-08-25T21:20:18.840Z,3.92
2022-08-25T21:22:47.637Z,3.95
2022-08-25T21:25:16.167Z,4.30
2022-08-25T21:27:46.040Z,3.70
2022-08-25T21:30:16.802Z,4.05
2022-08-25T21:32:53.351Z,4.15
2022-08-25T21:35:22.663Z,4.03
2022-08-25T21:37:53.560Z,3.80
2022-08-25T21:40:26.573Z,4.13
2022-08-25T21:42:57.913Z,3.30
2022-08-25T21:45:26.701Z,3.80
2022-08-25T21:48:04.556Z,4.00
2022-08-25T21:50:34.781Z,4.00
2022-08-25T21:53:03.237Z,4.00
2022-08-25T21:55:32.335Z,4.18
2022-08-25T21:58:04.952Z,3.70
2022-08-25T22:00:33.825Z,3.80
2022-08-25T22:03:03.342Z,3.67
2022-08-25T22:05:32.117Z,4.03
2022-08-25T22:08:00.974Z,4.40
2022-08-25T22:10:30.158Z,4.22
2022-08-25T22:12:58.737Z,4.20
2022-08-25T22:15:31.704Z,3.80
2022-08-25T22:18:00.417Z,4.35
2022-08-25T22:20:29.570Z,4.40
2022-08-25T22:23:00.157Z,4.55
2022-08-25T22:25:28.641Z,4.10
2022-08-25T22:28:00.938Z,3.47
2022-08-25T22:30:31.725Z,3.67
2022-08-25T22:33:00.420Z,3.60
2022-08-25T22:35:29.764Z,4.30
2022-08-25T22:37:58.191Z,4.18
2022-08-25T22:40:27.336Z,3.90
2022-08-25T22:43:00.242Z,3.92
2022-08-25T22:45:29.727Z,3.72
2022-08-25T22:47:59.899Z,3.95
2022-08-25T22:50:30.404Z,3.83
2022-08-25T22:52:59.020Z,4.20
2022-08-25T22:55:28.167Z,4.00
2022-08-25T22:57:57.062Z,4.95
2022-08-25T23:00:25.481Z,4.07
2022-08-25T23:02:54.363Z,4.10
2022-08-25T23:05:24.318Z,3.88
2022-08-25T23:07:52.753Z,4.32
2022-08-25T23:10:22.824Z,3.92
2022-08-25T23:12:51.605Z,4.60
2022-08-25T23:15:20.092Z,4.40
2022-08-25T23:17:48.580Z,4.15
2022-08-25T23:20:35.276Z,4.40
2022-08-25T23:23:05.110Z,3.67
2022-08-25T23:25:40.713Z,3.67
2022-08-25T23:28:09.378Z,3.90
2022-08-25T23:30:40.008Z,4.57
2022-08-25T23:33:12.019Z,4.10
2022-08-25T23:35:42.186Z,3.67
2022-08-25T23:38:12.404Z,4.53
2022-08-25T23:40:43.129Z,4.38
2022-08-25T23:43:11.826Z,4.05
2022-08-25T23:45:40.513Z,4.00
2022-08-25T23:48:09.598Z,3.88
2022-08-25T23:50:41.941Z,4.20
2022-08-25T23:53:11.748Z,3.88
2022-08-25T23:55:51.170Z,4.78
2022-08-25T23:58:22.766Z,4.97
